createdAt,value
2018-06-27T00:00:04.049Z,1012.20
2018-06-27T00:01:04.005Z,1012.19
2018-06-27T00:02:04.012Z,1012.18
2018-06-27T00:03:03.975Z,1012.20
2018-06-27T00:04:03.967Z,1012.22
2018-06-27T00:05:03.947Z,1012.21
2018-06-27T00:06:03.946Z,1012.17
2018-06-27T00:07:03.928Z,1012.22
2018-06-27T00:08:03.921Z,1012.21
2018-06-27T00:09:03.907Z,1012.22
2018-06-27T00:10:03.897Z,1012.19
2018-06-27T00:11:03.915Z,1012.22
2018-06-27T00:12:03.887Z,1012.24
2018-06-27T00:13:03.877Z,1012.24
2018-06-27T00:14:03.843Z,1012.26
2018-06-27T00:15:03.835Z,1012.21
2018-06-27T00:16:03.823Z,1012.22
2018-06-27T00:17:03.811Z,1012.24
2018-06-27T00:18:03.841Z,1012.27
2018-06-27T00:19:03.788Z,1012.20
2018-06-27T00:20:03.784Z,1012.22
2018-06-27T00:21:03.763Z,1012.17
2018-06-27T00:22:03.758Z,1012.19
2018-06-27T00:23:03.807Z,1012.23
2018-06-27T00:24:03.737Z,1012.22
2018-06-27T00:25:03.728Z,1012.19
2018-06-27T00:26:03.715Z,1012.15
2018-06-27T00:27:03.695Z,1012.19
2018-06-27T00:28:03.847Z,1012.15
2018-06-27T00:29:03.697Z,1012.17
2018-06-27T00:30:03.677Z,1012.15
2018-06-27T00:31:03.662Z,1012.18
2018-06-27T00:32:03.649Z,1012.19
2018-06-27T00:33:03.644Z,1012.20
2018-06-27T00:34:03.646Z,1012.18
2018-06-27T00:35:03.612Z,1012.18
2018-06-27T00:36:03.598Z,1012.22
2018-06-27T00:37:03.579Z,1012.18
2018-06-27T00:38:03.576Z,1012.20
2018-06-27T00:39:03.559Z,1012.19
2018-06-27T00:40:03.585Z,1012.23
2018-06-27T00:41:03.538Z,1012.19
2018-06-27T00:42:03.528Z,1012.17
2018-06-27T00:43:03.526Z,1012.18
2018-06-27T00:44:03.507Z,1012.25
2018-06-27T00:45:03.537Z,1012.20
2018-06-27T00:46:03.492Z,1012.21
2018-06-27T00:47:03.472Z,1012.20
2018-06-27T00:48:03.459Z,1012.22
2018-06-27T00:49:03.445Z,1012.23
2018-06-27T00:50:03.463Z,1012.23
2018-06-27T00:51:03.424Z,1012.21
2018-06-27T00:52:03.410Z,1012.19
2018-06-27T00:53:03.394Z,1012.23
2018-06-27T00:54:03.386Z,1012.26
2018-06-27T00:55:03.420Z,1012.28
2018-06-27T00:56:03.373Z,1012.28
2018-06-27T00:57:03.349Z,1012.27
2018-06-27T00:58:03.459Z,1012.23
2018-06-27T00:59:03.345Z,1012.24
2018-06-27T01:00:03.360Z,1012.22
2018-06-27T01:01:03.308Z,1012.20
2018-06-27T01:02:03.325Z,1012.25
2018-06-27T01:03:03.293Z,1012.23
2018-06-27T01:04:03.276Z,1012.24
2018-06-27T01:05:03.305Z,1012.25
2018-06-27T01:06:03.258Z,1012.22
2018-06-27T01:07:03.241Z,1012.23
2018-06-27T01:08:03.225Z,1012.23
2018-06-27T01:09:03.226Z,1012.22
2018-06-27T01:10:03.646Z,1012.19
2018-06-27T01:11:03.198Z,1012.21
2018-06-27T01:12:03.181Z,1012.18
2018-06-27T01:13:03.173Z,1012.17
2018-06-27T01:14:03.167Z,1012.19
2018-06-27T01:15:03.151Z,1012.21
2018-06-27T01:16:03.144Z,1012.21
2018-06-27T01:17:03.162Z,1012.21
2018-06-27T01:18:03.122Z,1012.23
2018-06-27T01:19:03.097Z,1012.23
2018-06-27T01:20:03.109Z,1012.23
2018-06-27T01:21:03.137Z,1012.23
2018-06-27T01:22:03.065Z,1012.25
2018-06-27T01:23:03.070Z,1012.27
2018-06-27T01:24:03.046Z,1012.25
2018-06-27T01:25:03.049Z,1012.25
2018-06-27T01:26:03.056Z,1012.23
2018-06-27T01:27:03.031Z,1012.29
2018-06-27T01:28:03.012Z,1012.23
2018-06-27T01:29:02.987Z,1012.28
2018-06-27T01:30:02.975Z,1012.29
2018-06-27T01:31:02.973Z,1012.27
2018-06-27T01:32:02.952Z,1012.34
2018-06-27T01:33:03.006Z,1012.33
2018-06-27T01:34:02.940Z,1012.30
2018-06-27T01:35:02.921Z,1012.34
2018-06-27T01:36:02.912Z,1012.31
2018-06-27T01:37:02.905Z,1012.32
2018-06-27T01:38:02.892Z,1012.36
2018-06-27T01:39:02.909Z,1012.34
2018-06-27T01:40:02.867Z,1012.32
2018-06-27T01:41:02.877Z,1012.33
2018-06-27T01:42:02.843Z,1012.29
2018-06-27T01:43:02.833Z,1012.28
2018-06-27T01:44:02.823Z,1012.29
2018-06-27T01:45:02.806Z,1012.29
2018-06-27T01:46:02.796Z,1012.31
2018-06-27T01:47:02.795Z,1012.30
2018-06-27T01:48:02.774Z,1012.26
2018-06-27T01:49:02.759Z,1012.25
2018-06-27T01:50:03.021Z,1012.30
2018-06-27T01:51:02.740Z,1012.32
2018-06-27T01:52:02.726Z,1012.32
2018-06-27T01:53:02.726Z,1012.31
2018-06-27T01:54:02.707Z,1012.32
2018-06-27T01:55:02.692Z,1012.35
2018-06-27T01:56:02.704Z,1012.34
2018-06-27T01:57:02.675Z,1012.33
2018-06-27T01:58:02.657Z,1012.36
2018-06-27T01:59:02.631Z,1012.35
2018-06-27T02:00:02.650Z,1012.30
2018-06-27T02:01:02.682Z,1012.35
2018-06-27T02:02:02.604Z,1012.32
2018-06-27T02:03:02.604Z,1012.36
2018-06-27T02:04:02.589Z,1012.38
2018-06-27T02:05:02.574Z,1012.40
2018-06-27T02:06:02.566Z,1012.39
2018-06-27T02:07:02.630Z,1012.36
2018-06-27T02:08:02.536Z,1012.35
2018-06-27T02:09:02.523Z,1012.36
2018-06-27T02:10:02.518Z,1012.35
2018-06-27T02:11:02.507Z,1012.36
2018-06-27T02:12:02.496Z,1012.39
2018-06-27T02:13:02.488Z,1012.36
2018-06-27T02:14:02.469Z,1012.40
2018-06-27T02:15:02.462Z,1012.34
2018-06-27T02:16:02.445Z,1012.33
2018-06-27T02:17:02.591Z,1012.33
2018-06-27T02:18:02.434Z,1012.34
2018-06-27T02:19:02.415Z,1012.32
2018-06-27T02:20:02.399Z,1012.32
2018-06-27T02:21:02.400Z,1012.35
2018-06-27T02:22:02.377Z,1012.34
2018-06-27T02:23:02.375Z,1012.31
2018-06-27T02:24:02.360Z,1012.29
2018-06-27T02:25:02.340Z,1012.30
2018-06-27T02:26:02.332Z,1012.29
2018-06-27T02:27:02.310Z,1012.28
2018-06-27T02:28:02.327Z,1012.28
2018-06-27T02:29:02.677Z,1012.27
2018-06-27T02:30:02.281Z,1012.29
2018-06-27T02:31:02.279Z,1012.29
2018-06-27T02:32:02.290Z,1012.26
2018-06-27T02:33:02.247Z,1012.27
2018-06-27T02:34:02.232Z,1012.24
2018-06-27T02:35:02.271Z,1012.23
2018-06-27T02:36:02.215Z,1012.27
2018-06-27T02:37:02.202Z,1012.19
2018-06-27T02:38:02.198Z,1012.26
2018-06-27T02:39:02.182Z,1012.24
2018-06-27T02:40:02.185Z,1012.25
2018-06-27T02:41:02.161Z,1012.28
2018-06-27T02:42:02.147Z,1012.22
2018-06-27T02:43:02.131Z,1012.30
2018-06-27T02:44:02.127Z,1012.33
2018-06-27T02:45:02.144Z,1012.34
2018-06-27T02:46:02.196Z,1012.30
2018-06-27T02:47:02.080Z,1012.30
2018-06-27T02:48:02.068Z,1012.34
2018-06-27T02:49:02.064Z,1012.31
2018-06-27T02:50:02.057Z,1012.34
2018-06-27T02:51:02.195Z,1012.33
2018-06-27T02:52:02.020Z,1012.37
2018-06-27T02:53:02.024Z,1012.40
2018-06-27T02:54:02.008Z,1012.37
2018-06-27T02:55:01.999Z,1012.37
2018-06-27T02:56:01.991Z,1012.36
2018-06-27T02:57:01.983Z,1012.37
2018-06-27T02:58:01.995Z,1012.34
2018-06-27T02:59:01.950Z,1012.38
2018-06-27T03:00:01.945Z,1012.38
2018-06-27T03:01:01.927Z,1012.39
2018-06-27T03:02:01.916Z,1012.37
2018-06-27T03:03:01.906Z,1012.38
2018-06-27T03:04:01.887Z,1012.40
2018-06-27T03:05:01.885Z,1012.41
2018-06-27T03:06:01.871Z,1012.40
2018-06-27T03:07:01.890Z,1012.43
2018-06-27T03:08:01.866Z,1012.43
2018-06-27T03:09:01.827Z,1012.44
2018-06-27T03:10:01.821Z,1012.44
2018-06-27T03:11:01.797Z,1012.47
2018-06-27T03:12:01.796Z,1012.47
2018-06-27T03:13:01.837Z,1012.47
2018-06-27T03:14:01.773Z,1012.50
2018-06-27T03:15:01.762Z,1012.51
2018-06-27T03:16:01.750Z,1012.51
2018-06-27T03:17:01.743Z,1012.49
2018-06-27T03:18:01.750Z,1012.51
2018-06-27T03:19:01.716Z,1012.49
2018-06-27T03:20:01.717Z,1012.51
2018-06-27T03:21:01.689Z,1012.52
2018-06-27T03:22:01.681Z,1012.49
2018-06-27T03:23:01.701Z,1012.50
2018-06-27T03:24:01.653Z,1012.52
2018-06-27T03:25:01.656Z,1012.53
2018-06-27T03:26:01.630Z,1012.55
2018-06-27T03:27:01.619Z,1012.58
2018-06-27T03:28:01.612Z,1012.59
2018-06-27T03:29:01.596Z,1012.55
2018-06-27T03:30:01.582Z,1012.54
2018-06-27T03:31:01.578Z,1012.53
2018-06-27T03:32:01.580Z,1012.54
2018-06-27T03:33:01.586Z,1012.51
2018-06-27T03:34:01.554Z,1012.55
2018-06-27T03:35:01.683Z,1012.56
2018-06-27T03:36:01.519Z,1012.57
2018-06-27T03:37:01.501Z,1012.57
2018-06-27T03:38:01.491Z,1012.56
2018-06-27T03:39:01.480Z,1012.56
2018-06-27T03:40:01.464Z,1012.54
2018-06-27T03:41:01.716Z,1012.56
2018-06-27T03:42:01.444Z,1012.61
2018-06-27T03:43:01.440Z,1012.57
2018-06-27T03:44:01.448Z,1012.53
2018-06-27T03:45:01.416Z,1012.51
2018-06-27T03:46:01.408Z,1012.54
2018-06-27T03:47:01.391Z,1012.50
2018-06-27T03:48:01.391Z,1012.43
2018-06-27T03:49:01.367Z,1012.47
2018-06-27T03:50:01.359Z,1012.48
2018-06-27T03:51:01.333Z,1012.49
2018-06-27T03:52:01.361Z,1012.48
2018-06-27T03:53:01.314Z,1012.48
2018-06-27T03:54:01.307Z,1012.51
2018-06-27T03:55:01.290Z,1012.49
2018-06-27T03:56:01.287Z,1012.54
2018-06-27T03:57:01.313Z,1012.55
2018-06-27T03:58:01.281Z,1012.59
2018-06-27T03:59:01.308Z,1012.59
2018-06-27T04:00:01.232Z,1012.58
2018-06-27T04:01:01.226Z,1012.59
2018-06-27T04:02:01.239Z,1012.59
2018-06-27T04:03:01.244Z,1012.58
2018-06-27T04:04:01.188Z,1012.61
2018-06-27T04:05:01.171Z,1012.59
2018-06-27T04:06:01.159Z,1012.62
2018-06-27T04:07:01.154Z,1012.60
2018-06-27T04:08:01.170Z,1012.63
2018-06-27T04:09:01.122Z,1012.61
2018-06-27T04:10:01.122Z,1012.62
2018-06-27T04:11:01.130Z,1012.62
2018-06-27T04:12:01.246Z,1012.61
2018-06-27T04:13:01.253Z,1012.64
2018-06-27T04:14:01.070Z,1012.62
2018-06-27T04:15:01.059Z,1012.65
2018-06-27T04:16:01.038Z,1012.65
2018-06-27T04:17:01.029Z,1012.68
2018-06-27T04:18:01.228Z,1012.64
2018-06-27T04:19:01.049Z,1012.64
2018-06-27T04:20:01.000Z,1012.64
2018-06-27T04:21:00.989Z,1012.69
2018-06-27T04:22:00.972Z,1012.64
2018-06-27T04:23:00.964Z,1012.65
2018-06-27T04:24:00.954Z,1012.65
2018-06-27T04:25:00.958Z,1012.66
2018-06-27T04:26:00.932Z,1012.69
2018-06-27T04:27:00.912Z,1012.65
2018-06-27T04:28:00.945Z,1012.68
2018-06-27T04:29:00.895Z,1012.64
2018-06-27T04:30:00.879Z,1012.65
2018-06-27T04:31:00.869Z,1012.63
2018-06-27T04:32:00.857Z,1012.65
2018-06-27T04:33:00.879Z,1012.65
2018-06-27T04:34:01.039Z,1012.65
2018-06-27T04:35:00.817Z,1012.69
2018-06-27T04:36:00.846Z,1012.67
2018-06-27T04:37:00.789Z,1012.64
2018-06-27T04:38:00.808Z,1012.64
2018-06-27T04:39:00.802Z,1012.64
2018-06-27T04:40:00.752Z,1012.63
2018-06-27T04:41:00.751Z,1012.66
2018-06-27T04:42:00.734Z,1012.68
2018-06-27T04:43:00.729Z,1012.69
2018-06-27T04:44:00.720Z,1012.65
2018-06-27T04:45:00.730Z,1012.62
2018-06-27T04:46:00.705Z,1012.59
2018-06-27T04:47:00.674Z,1012.61
2018-06-27T04:48:00.664Z,1012.55
2018-06-27T04:49:00.664Z,1012.56
2018-06-27T04:50:00.676Z,1012.57
2018-06-27T04:51:00.715Z,1012.59
2018-06-27T04:52:00.624Z,1012.61
2018-06-27T04:53:00.618Z,1012.64
2018-06-27T04:54:00.599Z,1012.62
2018-06-27T04:55:00.680Z,1012.65
2018-06-27T04:56:00.644Z,1012.66
2018-06-27T04:57:00.564Z,1012.69
2018-06-27T04:58:00.556Z,1012.66
2018-06-27T04:59:00.537Z,1012.66
2018-06-27T05:00:00.527Z,1012.69
2018-06-27T05:01:00.521Z,1012.69
2018-06-27T05:02:00.533Z,1012.71
2018-06-27T05:03:00.496Z,1012.71
2018-06-27T05:04:00.472Z,1012.71
2018-06-27T05:05:00.473Z,1012.69
2018-06-27T05:06:00.486Z,1012.66
2018-06-27T05:07:00.445Z,1012.66
2018-06-27T05:08:00.439Z,1012.64
2018-06-27T05:09:00.422Z,1012.66
2018-06-27T05:10:00.413Z,1012.64
2018-06-27T05:11:00.459Z,1012.63
2018-06-27T05:12:00.388Z,1012.61
2018-06-27T05:13:00.378Z,1012.61
2018-06-27T05:14:00.354Z,1012.64
2018-06-27T05:15:00.353Z,1012.65
2018-06-27T05:16:00.369Z,1012.69
2018-06-27T05:17:00.477Z,1012.67
2018-06-27T05:18:00.316Z,1012.68
2018-06-27T05:19:00.316Z,1012.67
2018-06-27T05:20:00.300Z,1012.66
2018-06-27T05:21:00.289Z,1012.65
2018-06-27T05:22:00.271Z,1012.63
2018-06-27T05:23:00.270Z,1012.71
2018-06-27T05:24:00.287Z,1012.71
2018-06-27T05:25:00.237Z,1012.75
2018-06-27T05:26:00.226Z,1012.79
2018-06-27T05:27:00.219Z,1012.76
2018-06-27T05:28:00.217Z,1012.78
2018-06-27T05:29:00.186Z,1012.77
2018-06-27T05:30:00.183Z,1012.79
2018-06-27T05:31:00.182Z,1012.81
2018-06-27T05:32:00.159Z,1012.81
2018-06-27T05:33:00.148Z,1012.84
2018-06-27T05:34:00.194Z,1012.84
2018-06-27T05:35:00.125Z,1012.84
2018-06-27T05:36:00.116Z,1012.86
2018-06-27T05:37:00.103Z,1012.86
2018-06-27T05:38:00.125Z,1012.90
2018-06-27T05:39:00.115Z,1012.85
2018-06-27T05:40:00.064Z,1012.87
2018-06-27T05:41:00.055Z,1012.85
2018-06-27T05:42:00.060Z,1012.89
2018-06-27T05:43:00.032Z,1012.86
2018-06-27T05:44:00.050Z,1012.88
2018-06-27T05:45:00.019Z,1012.92
2018-06-27T05:46:00.006Z,1012.96
2018-06-27T05:46:59.998Z,1012.89
2018-06-27T05:47:59.976Z,1012.91
2018-06-27T05:49:00.002Z,1012.97
2018-06-27T05:49:59.955Z,1012.93
2018-06-27T05:50:59.949Z,1012.95
2018-06-27T05:51:59.937Z,1012.94
2018-06-27T05:52:59.921Z,1012.91
2018-06-27T05:53:59.959Z,1012.99
2018-06-27T05:54:59.904Z,1012.97
2018-06-27T05:55:59.893Z,1012.91
2018-06-27T05:56:59.877Z,1012.95
2018-06-27T05:57:59.874Z,1012.92
2018-06-27T05:58:59.864Z,1012.93
2018-06-27T05:59:59.901Z,1012.94
2018-06-27T06:00:59.840Z,1012.98
2018-06-27T06:01:59.825Z,1012.92
2018-06-27T06:02:59.811Z,1012.95
2018-06-27T06:03:59.804Z,1012.96
2018-06-27T06:04:59.782Z,1012.96
2018-06-27T06:05:59.788Z,1012.96
2018-06-27T06:06:59.769Z,1012.95
2018-06-27T06:07:59.771Z,1012.92
2018-06-27T06:08:59.749Z,1012.94
2018-06-27T06:09:59.761Z,1012.93
2018-06-27T06:10:59.757Z,1012.97
2018-06-27T06:11:59.723Z,1012.95
2018-06-27T06:12:59.704Z,1012.96
2018-06-27T06:13:59.686Z,1012.98
2018-06-27T06:14:59.714Z,1012.95
2018-06-27T06:15:59.736Z,1012.95
2018-06-27T06:16:59.661Z,1013.01
2018-06-27T06:17:59.654Z,1012.98
2018-06-27T06:18:59.635Z,1012.98
2018-06-27T06:19:59.637Z,1012.98
2018-06-27T06:20:59.619Z,1012.99
2018-06-27T06:21:59.653Z,1013.00
2018-06-27T06:22:59.607Z,1013.03
2018-06-27T06:23:59.658Z,1013.03
2018-06-27T06:24:59.576Z,1013.03
2018-06-27T06:25:59.576Z,1013.05
2018-06-27T06:26:59.563Z,1013.04
2018-06-27T06:27:59.549Z,1013.02
2018-06-27T06:28:59.544Z,1012.99
2018-06-27T06:29:59.560Z,1013.04
2018-06-27T06:30:59.532Z,1013.02
2018-06-27T06:31:59.501Z,1012.99
2018-06-27T06:32:59.500Z,1012.99
2018-06-27T06:33:59.764Z,1013.02
2018-06-27T06:34:59.488Z,1013.00
2018-06-27T06:35:59.466Z,1012.95
2018-06-27T06:36:59.454Z,1012.98
2018-06-27T06:37:59.449Z,1012.95
2018-06-27T06:38:59.580Z,1012.91
2018-06-27T06:39:59.424Z,1012.94
2018-06-27T06:40:59.427Z,1012.91
2018-06-27T06:41:59.412Z,1012.94
2018-06-27T06:42:59.399Z,1012.93
2018-06-27T06:43:59.384Z,1012.94
2018-06-27T06:44:59.394Z,1012.92
2018-06-27T06:45:59.433Z,1012.90
2018-06-27T06:46:59.795Z,1012.90
2018-06-27T06:47:59.352Z,1012.94
2018-06-27T06:48:59.349Z,1012.94
2018-06-27T06:49:59.325Z,1012.92
2018-06-27T06:50:59.321Z,1012.93
2018-06-27T06:51:59.309Z,1012.93
2018-06-27T06:52:59.301Z,1012.89
2018-06-27T06:53:59.291Z,1012.92
2018-06-27T06:54:59.276Z,1012.88
2018-06-27T06:55:59.278Z,1012.92
2018-06-27T06:56:59.251Z,1012.94
2018-06-27T06:57:59.256Z,1012.92
2018-06-27T06:58:59.238Z,1012.96
2018-06-27T06:59:59.240Z,1012.91
2018-06-27T07:00:59.225Z,1012.90
2018-06-27T07:01:59.211Z,1012.93
2018-06-27T07:02:59.243Z,1012.94
2018-06-27T07:03:59.190Z,1012.92
2018-06-27T07:04:59.210Z,1012.92
2018-06-27T07:05:59.174Z,1012.90
2018-06-27T07:06:59.155Z,1012.92
2018-06-27T07:07:59.209Z,1012.91
2018-06-27T07:08:59.147Z,1012.93
2018-06-27T07:09:59.134Z,1012.93
2018-06-27T07:10:59.150Z,1012.93
2018-06-27T07:11:59.118Z,1012.95
2018-06-27T07:12:59.249Z,1012.94
2018-06-27T07:13:59.101Z,1012.95
2018-06-27T07:14:59.086Z,1012.92
2018-06-27T07:15:59.073Z,1012.89
2018-06-27T07:16:59.058Z,1012.90
2018-06-27T07:17:59.266Z,1012.89
2018-06-27T07:18:59.088Z,1012.90
2018-06-27T07:19:59.043Z,1012.91
2018-06-27T07:20:59.033Z,1012.93
2018-06-27T07:21:59.019Z,1012.95
2018-06-27T07:22:59.021Z,1012.95
2018-06-27T07:23:59.024Z,1012.90
2018-06-27T07:24:59.010Z,1012.91
2018-06-27T07:25:59.020Z,1012.92
2018-06-27T07:26:58.974Z,1012.92
2018-06-27T07:27:58.970Z,1012.95
2018-06-27T07:28:58.943Z,1012.93
2018-06-27T07:29:58.968Z,1012.95
2018-06-27T07:30:59.302Z,1012.96
2018-06-27T07:31:58.941Z,1013.00
2018-06-27T07:32:58.917Z,1013.00
2018-06-27T07:33:58.908Z,1013.03
2018-06-27T07:34:58.897Z,1013.04
2018-06-27T07:35:58.938Z,1013.03
2018-06-27T07:36:58.877Z,1013.07
2018-06-27T07:37:58.868Z,1013.10
2018-06-27T07:38:58.864Z,1013.09
2018-06-27T07:39:58.868Z,1013.08
2018-06-27T07:40:59.295Z,1013.11
2018-06-27T07:41:58.842Z,1013.13
2018-06-27T07:42:59.766Z,1013.11
2018-06-27T07:43:58.835Z,1013.13
2018-06-27T07:44:59.158Z,1013.10
2018-06-27T07:45:58.986Z,1013.12
2018-06-27T07:46:58.929Z,1013.14
2018-06-27T07:47:58.909Z,1013.11
2018-06-27T07:48:58.768Z,1013.11
2018-06-27T07:49:58.761Z,1013.11
2018-06-27T07:50:58.756Z,1013.06
2018-06-27T07:51:58.745Z,1013.08
2018-06-27T07:52:58.786Z,1013.13
2018-06-27T07:53:58.755Z,1013.12
2018-06-27T07:54:58.717Z,1013.17
2018-06-27T07:55:58.709Z,1013.18
2018-06-27T07:56:58.704Z,1013.20
2018-06-27T07:57:58.680Z,1013.22
2018-06-27T07:58:58.757Z,1013.20
2018-06-27T07:59:58.689Z,1013.24
2018-06-27T08:00:58.669Z,1013.24
2018-06-27T08:01:58.668Z,1013.25
2018-06-27T08:02:58.644Z,1013.26
2018-06-27T08:03:58.630Z,1013.25
2018-06-27T08:04:58.629Z,1013.26
2018-06-27T08:05:58.694Z,1013.23
2018-06-27T08:06:58.609Z,1013.21
2018-06-27T08:07:58.603Z,1013.25
2018-06-27T08:08:58.600Z,1013.22
2018-06-27T08:09:58.592Z,1013.15
2018-06-27T08:10:58.584Z,1013.20
2018-06-27T08:11:58.571Z,1013.14
2018-06-27T08:12:58.556Z,1013.12
2018-06-27T08:13:58.540Z,1013.16
2018-06-27T08:14:58.602Z,1013.17
2018-06-27T08:15:58.534Z,1013.18
2018-06-27T08:16:58.514Z,1013.17
2018-06-27T08:17:58.613Z,1013.17
2018-06-27T08:18:58.517Z,1013.20
2018-06-27T08:19:58.486Z,1013.20
2018-06-27T08:20:58.524Z,1013.21
2018-06-27T08:21:58.482Z,1013.22
2018-06-27T08:22:58.517Z,1013.24
2018-06-27T08:23:58.461Z,1013.21
2018-06-27T08:24:58.451Z,1013.23
2018-06-27T08:25:58.484Z,1013.22
2018-06-27T08:26:58.436Z,1013.22
2018-06-27T08:28:01.767Z,1013.23
2018-06-27T08:28:58.419Z,1013.20
2018-06-27T08:29:58.427Z,1013.18
2018-06-27T08:30:58.520Z,1013.22
2018-06-27T08:31:58.389Z,1013.25
2018-06-27T08:32:58.378Z,1013.22
2018-06-27T08:33:58.532Z,1013.26
2018-06-27T08:34:58.490Z,1013.28
2018-06-27T08:35:58.389Z,1013.27
2018-06-27T08:36:58.392Z,1013.30
2018-06-27T08:37:58.347Z,1013.26
2018-06-27T08:38:58.337Z,1013.29
2018-06-27T08:39:58.335Z,1013.33
2018-06-27T08:40:58.341Z,1013.34
2018-06-27T08:41:58.448Z,1013.34
2018-06-27T08:42:58.378Z,1013.27
2018-06-27T08:43:58.447Z,1013.28
2018-06-27T08:44:59.120Z,1013.24
2018-06-27T08:45:58.998Z,1013.23
2018-06-27T08:46:58.702Z,1013.24
2018-06-27T08:47:58.682Z,1013.24
2018-06-27T08:48:58.867Z,1013.20
2018-06-27T08:49:59.419Z,1013.27
2018-06-27T08:50:59.030Z,1013.26
2018-06-27T08:51:58.928Z,1013.29
2018-06-27T08:52:58.912Z,1013.26
2018-06-27T08:53:59.047Z,1013.24
2018-06-27T08:54:58.907Z,1013.24
2018-06-27T08:55:59.097Z,1013.25
2018-06-27T08:56:58.843Z,1013.28
2018-06-27T08:57:58.751Z,1013.27
2018-06-27T08:58:59.034Z,1013.25
2018-06-27T08:59:58.749Z,1013.24
2018-06-27T09:00:58.820Z,1013.22
2018-06-27T09:01:59.057Z,1013.19
2018-06-27T09:02:58.888Z,1013.19
2018-06-27T09:03:58.911Z,1013.19
2018-06-27T09:04:58.907Z,1013.16
2018-06-27T09:05:58.905Z,1013.16
2018-06-27T09:06:59.380Z,1013.20
2018-06-27T09:07:59.024Z,1013.21
2018-06-27T09:08:59.049Z,1013.21
2018-06-27T09:09:58.803Z,1013.21
2018-06-27T09:10:58.847Z,1013.28
2018-06-27T09:11:58.892Z,1013.24
2018-06-27T09:12:59.279Z,1013.24
2018-06-27T09:13:58.914Z,1013.23
2018-06-27T09:14:58.939Z,1013.24
2018-06-27T09:15:58.975Z,1013.19
2018-06-27T09:16:59.063Z,1013.19
2018-06-27T09:17:58.767Z,1013.23
2018-06-27T09:18:58.917Z,1013.15
2018-06-27T09:19:58.934Z,1013.17
2018-06-27T09:20:58.972Z,1013.21
2018-06-27T09:21:58.781Z,1013.25
2018-06-27T09:22:58.252Z,1013.23
2018-06-27T09:23:58.252Z,1013.22
2018-06-27T09:24:58.278Z,1013.20
2018-06-27T09:25:58.331Z,1013.18
2018-06-27T09:26:58.265Z,1013.19
2018-06-27T09:27:58.276Z,1013.18
2018-06-27T09:28:58.277Z,1013.20
2018-06-27T09:29:58.280Z,1013.20
2018-06-27T09:30:58.349Z,1013.17
2018-06-27T09:31:58.278Z,1013.22
2018-06-27T09:32:58.290Z,1013.24
2018-06-27T09:33:58.313Z,1013.21
2018-06-27T09:34:58.298Z,1013.21
2018-06-27T09:35:58.305Z,1013.21
2018-06-27T09:36:58.366Z,1013.23
2018-06-27T09:37:58.316Z,1013.24
2018-06-27T09:38:58.323Z,1013.27
2018-06-27T09:39:58.327Z,1013.25
2018-06-27T09:40:58.329Z,1013.26
2018-06-27T09:41:58.542Z,1013.24
2018-06-27T09:42:58.341Z,1013.27
2018-06-27T09:43:58.354Z,1013.24
2018-06-27T09:44:58.355Z,1013.28
2018-06-27T09:45:58.370Z,1013.26
2018-06-27T09:46:58.368Z,1013.26
2018-06-27T09:47:58.406Z,1013.25
2018-06-27T09:48:58.403Z,1013.17
2018-06-27T09:49:58.393Z,1013.22
2018-06-27T09:50:58.387Z,1013.24
2018-06-27T09:51:58.410Z,1013.24
2018-06-27T09:52:58.402Z,1013.19
2018-06-27T09:53:58.780Z,1013.18
2018-06-27T09:54:58.417Z,1013.23
2018-06-27T09:55:58.431Z,1013.22
2018-06-27T09:56:58.438Z,1013.19
2018-06-27T09:57:58.454Z,1013.24
2018-06-27T09:58:58.448Z,1013.25
2018-06-27T09:59:58.498Z,1013.28
2018-06-27T10:00:58.464Z,1013.26
2018-06-27T10:01:58.475Z,1013.24
2018-06-27T10:02:58.476Z,1013.30
2018-06-27T10:03:58.477Z,1013.25
2018-06-27T10:04:58.516Z,1013.26
2018-06-27T10:05:58.503Z,1013.28
2018-06-27T10:06:58.507Z,1013.20
2018-06-27T10:07:58.503Z,1013.07
2018-06-27T10:08:58.512Z,1013.21
2018-06-27T10:09:58.567Z,1013.10
2018-06-27T10:10:58.532Z,1013.03
2018-06-27T10:11:58.539Z,1012.99
2018-06-27T10:12:58.548Z,1012.92
2018-06-27T10:13:58.564Z,1012.91
2018-06-27T10:14:58.557Z,1012.99
2018-06-27T10:15:58.583Z,1013.04
2018-06-27T10:16:58.604Z,1013.07
2018-06-27T10:17:58.590Z,1013.16
2018-06-27T10:18:58.596Z,1013.10
2018-06-27T10:19:58.593Z,1013.19
2018-06-27T10:20:58.641Z,1013.12
2018-06-27T10:21:58.616Z,1013.12
2018-06-27T10:22:58.628Z,1013.23
2018-06-27T10:23:58.633Z,1013.15
2018-06-27T10:24:58.791Z,1013.22
2018-06-27T10:25:58.646Z,1013.23
2018-06-27T10:26:58.653Z,1013.15
2018-06-27T10:27:58.661Z,1013.18
2018-06-27T10:28:58.665Z,1013.06
2018-06-27T10:29:58.669Z,1013.08
2018-06-27T10:30:58.680Z,1013.21
2018-06-27T10:31:58.686Z,1013.26
2018-06-27T10:32:58.709Z,1013.21
2018-06-27T10:33:58.715Z,1013.29
2018-06-27T10:34:58.748Z,1013.35
2018-06-27T10:35:58.859Z,1013.94
2018-06-27T10:36:58.730Z,1014.08
2018-06-27T10:37:58.749Z,1013.55
2018-06-27T10:38:58.744Z,1013.45
2018-06-27T10:39:58.762Z,1013.42
2018-06-27T10:40:58.770Z,1013.42
2018-06-27T10:41:58.790Z,1013.44
2018-06-27T10:42:58.770Z,1013.35
2018-06-27T10:43:58.798Z,1013.41
2018-06-27T10:44:58.797Z,1013.48
2018-06-27T10:45:58.851Z,1013.46
2018-06-27T10:46:58.818Z,1013.57
2018-06-27T10:47:58.830Z,1013.83
2018-06-27T10:48:58.830Z,1013.77
2018-06-27T10:49:58.833Z,1013.41
2018-06-27T10:50:58.845Z,1013.10
2018-06-27T10:51:58.886Z,1013.08
2018-06-27T10:52:58.856Z,1013.10
2018-06-27T10:53:58.873Z,1013.11
2018-06-27T10:54:58.879Z,1013.08
2018-06-27T10:55:58.922Z,1012.88
2018-06-27T10:56:59.395Z,1013.20
2018-06-27T10:57:58.905Z,1013.23
2018-06-27T10:58:58.910Z,1013.30
2018-06-27T10:59:58.921Z,1013.33
2018-06-27T11:00:58.937Z,1013.36
2018-06-27T11:01:58.968Z,1012.85
2018-06-27T11:02:58.948Z,1013.34
2018-06-27T11:03:59.004Z,1012.83
2018-06-27T11:04:58.958Z,1012.72
2018-06-27T11:05:58.967Z,1012.75
2018-06-27T11:06:58.979Z,1012.56
2018-06-27T11:07:58.994Z,1012.81
2018-06-27T11:08:58.992Z,1012.87
2018-06-27T11:09:58.999Z,1013.08
2018-06-27T11:10:59.008Z,1013.22
2018-06-27T11:11:59.053Z,1012.54
2018-06-27T11:12:59.021Z,1013.43
2018-06-27T11:13:59.032Z,1013.26
2018-06-27T11:14:59.033Z,1013.28
2018-06-27T11:15:59.086Z,1013.46
2018-06-27T11:16:59.036Z,1013.48
2018-06-27T11:17:59.052Z,1012.70
2018-06-27T11:18:59.064Z,1012.59
2018-06-27T11:19:59.065Z,1013.53
2018-06-27T11:20:59.092Z,1012.67
2018-06-27T11:21:59.082Z,1012.95
2018-06-27T11:22:59.096Z,1013.38
2018-06-27T11:23:59.084Z,1013.35
2018-06-27T11:24:59.163Z,1013.43
2018-06-27T11:25:59.113Z,1012.52
2018-06-27T11:26:59.154Z,1013.05
2018-06-27T11:27:59.145Z,1013.23
2018-06-27T11:28:59.120Z,1012.47
2018-06-27T11:29:59.128Z,1012.48
2018-06-27T11:30:59.134Z,1013.12
2018-06-27T11:31:59.135Z,1013.28
2018-06-27T11:32:59.144Z,1012.49
2018-06-27T11:33:59.148Z,1012.41
2018-06-27T11:34:59.160Z,1012.37
2018-06-27T11:35:59.259Z,1012.67
2018-06-27T11:36:59.169Z,1012.84
2018-06-27T11:37:59.165Z,1013.18
2018-06-27T11:38:59.177Z,1013.17
2018-06-27T11:39:59.190Z,1013.17
2018-06-27T11:40:59.168Z,1013.11
2018-06-27T11:41:59.227Z,1013.18
2018-06-27T11:42:59.197Z,1013.14
2018-06-27T11:43:59.202Z,1012.95
2018-06-27T11:44:59.199Z,1012.36
2018-06-27T11:45:59.207Z,1012.28
2018-06-27T11:46:59.351Z,1013.09
2018-06-27T11:47:59.219Z,1012.97
2018-06-27T11:48:59.229Z,1012.87
2018-06-27T11:49:59.225Z,1012.82
2018-06-27T11:50:59.243Z,1012.29
2018-06-27T11:51:59.237Z,1012.29
2018-06-27T11:52:59.249Z,1012.31
2018-06-27T11:53:59.246Z,1012.30
2018-06-27T11:54:59.246Z,1012.29
2018-06-27T11:55:59.251Z,1012.23
2018-06-27T11:56:59.271Z,1012.24
2018-06-27T11:57:59.270Z,1012.26
2018-06-27T11:58:59.291Z,1012.26
2018-06-27T11:59:59.279Z,1012.23
2018-06-27T12:00:59.280Z,1012.22
2018-06-27T12:01:59.285Z,1012.14
2018-06-27T12:02:59.307Z,1012.21
2018-06-27T12:03:59.284Z,1012.29
2018-06-27T12:04:59.289Z,1012.21